Time;durP1;ratioP1;P1;durP2;ratioP2;P2;SDS_P1;SDS_P2;PMS_P1;PMS_P2;Temp;Humidity;BMP_temperature;BMP_pressure;BME280_temperature;BME280_humidity;BME280_pressure;Samples;Min_cycle;Max_cycle;Signal;HPM_P1;HPM_P2
2022/10/11 00:00:30;;;;;;;;;;;9.30;99.90;;;;;;4992609;28;19934;-67
2022/10/11 00:02:56;;;;;;;;;;;9.20;99.90;;;;;;4992073;28;20012;-66
2022/10/11 00:05:22;;;;;;;;;;;9.20;99.90;;;;;;4992781;28;19932;-66
2022/10/11 00:07:47;;;;;;;;;;;9.10;99.90;;;;;;4992073;28;19926;-67
2022/10/11 00:10:13;;;;;;;;;;;9.10;99.90;;;;;;4991988;28;20406;-66
2022/10/11 00:12:38;;;;;;;;;;;9.00;99.90;;;;;;4992170;28;19965;-66
2022/10/11 00:15:05;;;;;;;;;;;9.00;99.90;;;;;;4991003;28;19926;-66
2022/10/11 00:17:30;;;;;;;;;;;8.90;99.90;;;;;;4992349;28;19925;-66
2022/10/11 00:19:56;;;;;;;;;;;8.90;99.90;;;;;;4991958;28;20306;-66
2022/10/11 00:22:22;;;;;;;;;;;8.90;99.90;;;;;;4992239;28;19926;-66
2022/10/11 00:24:47;;;;;;;;;;;8.90;99.90;;;;;;4991950;28;19930;-66
2022/10/11 00:27:13;;;;;;;;;;;8.80;99.90;;;;;;4990973;28;20051;-66
2022/10/11 00:29:38;;;;;;;;;;;8.80;99.90;;;;;;4992055;28;19926;-67
2022/10/11 00:32:04;;;;;;;;;;;8.70;99.90;;;;;;4991711;28;19933;-66
2022/10/11 00:34:29;;;;;;;;;;;8.70;99.90;;;;;;4990996;28;19926;-66
2022/10/11 00:36:55;;;;;;;;;;;8.70;99.90;;;;;;4991507;28;20013;-65
2022/10/11 00:39:21;;;;;;;;;;;8.80;99.90;;;;;;4991952;28;20079;-66
2022/10/11 00:41:48;;;;;;;;;;;8.70;99.90;;;;;;4991193;28;20008;-67
2022/10/11 00:44:15;;;;;;;;;;;8.70;99.90;;;;;;4991993;28;19930;-65
2022/10/11 00:46:43;;;;;;;;;;;8.60;99.90;;;;;;4992027;28;19926;-66
2022/10/11 00:49:27;;;;;;;;;;;8.60;99.90;;;;;;4991353;28;19967;-66
2022/10/11 00:51:55;;;;;;;;;;;8.60;99.90;;;;;;4991228;28;19941;-66
2022/10/11 00:54:24;;;;;;;;;;;8.60;99.90;;;;;;4991421;28;19937;-66
2022/10/11 00:56:52;;;;;;;;;;;8.50;99.90;;;;;;4991208;28;19933;-66
2022/10/11 00:59:20;;;;;;;;;;;8.60;99.90;;;;;;4991737;28;19926;-66
2022/10/11 01:01:45;;;;;;;;;;;8.50;99.90;;;;;;4991435;28;19926;-66
2022/10/11 01:04:11;;;;;;;;;;;8.50;99.90;;;;;;4990291;28;20235;-66
2022/10/11 01:06:37;;;;;;;;;;;8.50;99.90;;;;;;4990261;28;19976;-65
2022/10/11 01:09:02;;;;;;;;;;;8.50;99.90;;;;;;4990955;28;20016;-65
2022/10/11 01:11:29;;;;;;;;;;;8.50;99.90;;;;;;4991314;28;20341;-66
2022/10/11 01:14:30;;;;;;;;;;;8.50;99.90;;;;;;4990950;28;19979;-65
2022/10/11 01:17:01;;;;;;;;;;;8.60;99.90;;;;;;5050659;28;19925;-65
2022/10/11 01:19:27;;;;;;;;;;;8.50;99.90;;;;;;4980877;28;20402;-65
2022/10/11 01:22:11;;;;;;;;;;;8.60;99.90;;;;;;4991061;28;19930;-65
2022/10/11 01:24:59;;;;;;;;;;;8.60;99.90;;;;;;4990989;28;20470;-66
2022/10/11 01:27:41;;;;;;;;;;;8.60;99.90;;;;;;4990468;28;19932;-66
2022/10/11 01:30:19;;;;;;;;;;;8.60;99.90;;;;;;4990764;28;19933;-66
2022/10/11 01:32:45;;;;;;;;;;;8.60;99.90;;;;;;4991218;28;19933;-66
2022/10/11 01:35:46;;;;;;;;;;;8.60;99.90;;;;;;4990944;28;19934;-65
2022/10/11 01:38:16;;;;;;;;;;;8.60;99.90;;;;;;5033881;28;20041;-66
2022/10/11 01:40:51;;;;;;;;;;;8.60;99.90;;;;;;5001538;28;19929;-66
2022/10/11 01:43:18;;;;;;;;;;;8.60;99.90;;;;;;4990668;28;19932;-66
2022/10/11 01:45:44;;;;;;;;;;;8.70;99.90;;;;;;4973621;28;20287;-66
2022/10/11 01:48:11;;;;;;;;;;;8.60;99.90;;;;;;4990619;28;20342;-67
2022/10/11 01:50:50;;;;;;;;;;;8.60;99.90;;;;;;4990867;28;20267;-66
2022/10/11 01:53:26;;;;;;;;;;;8.60;99.90;;;;;;4989617;28;20170;-66
2022/10/11 01:55:51;;;;;;;;;;;8.60;99.90;;;;;;4989576;28;20297;-66
2022/10/11 01:58:25;;;;;;;;;;;8.60;99.90;;;;;;4989309;28;19929;-65
2022/10/11 02:00:56;;;;;;;;;;;8.50;99.90;;;;;;4990799;28;19991;-66
2022/10/11 02:03:22;;;;;;;;;;;8.50;99.90;;;;;;4990674;28;19932;-65
2022/10/11 02:05:48;;;;;;;;;;;8.50;99.90;;;;;;4989277;28;19926;-65
2022/10/11 02:08:32;;;;;;;;;;;8.50;99.90;;;;;;4990317;28;19937;-66
2022/10/11 02:11:02;;;;;;;;;;;8.50;99.90;;;;;;4990273;28;19926;-67
2022/10/11 02:13:57;;;;;;;;;;;8.50;99.90;;;;;;4990440;28;19926;-65
2022/10/11 02:16:27;;;;;;;;;;;8.50;99.90;;;;;;5002301;28;20012;-65
2022/10/11 02:18:54;;;;;;;;;;;8.50;99.90;;;;;;4990022;28;19926;-66
2022/10/11 02:21:21;;;;;;;;;;;8.60;99.90;;;;;;4990103;28;19932;-66
2022/10/11 02:23:50;;;;;;;;;;;8.40;99.90;;;;;;4990527;28;19933;-66
2022/10/11 02:26:15;;;;;;;;;;;8.40;99.90;;;;;;4990037;28;20020;-66
2022/10/11 02:28:41;;;;;;;;;;;8.40;99.90;;;;;;4990478;28;20363;-66
2022/10/11 02:31:09;;;;;;;;;;;8.40;99.90;;;;;;4988799;28;19929;-66
2022/10/11 02:34:00;;;;;;;;;;;8.40;99.90;;;;;;4990215;28;19925;-66
2022/10/11 02:36:35;;;;;;;;;;;8.40;99.90;;;;;;4992456;28;19980;-66
2022/10/11 02:39:04;;;;;;;;;;;8.40;99.90;;;;;;4989309;28;19929;-68
2022/10/11 02:41:37;;;;;;;;;;;8.40;99.90;;;;;;4990418;28;19926;-66
2022/10/11 02:44:08;;;;;;;;;;;8.40;99.90;;;;;;4989667;28;19930;-67
2022/10/11 02:46:34;;;;;;;;;;;8.40;99.90;;;;;;4972932;28;19930;-65
2022/10/11 02:49:00;;;;;;;;;;;8.40;99.90;;;;;;4990111;28;19932;-65
2022/10/11 02:51:29;;;;;;;;;;;8.40;99.90;;;;;;4988667;28;19936;-65
2022/10/11 02:53:54;;;;;;;;;;;8.30;99.90;;;;;;4989977;28;19926;-66
2022/10/11 02:56:20;;;;;;;;;;;8.30;99.90;;;;;;4988461;28;19926;-65
2022/10/11 02:58:46;;;;;;;;;;;8.30;99.90;;;;;;4988787;28;19976;-65
2022/10/11 03:01:11;;;;;;;;;;;8.30;99.90;;;;;;4989625;28;19930;-65
2022/10/11 03:03:37;;;;;;;;;;;8.30;99.90;;;;;;4989773;28;20301;-65
2022/10/11 03:06:02;;;;;;;;;;;8.30;99.90;;;;;;4990137;28;19995;-66
2022/10/11 03:08:28;;;;;;;;;;;8.20;99.90;;;;;;4988292;28;19961;-65
2022/10/11 03:10:54;;;;;;;;;;;8.20;99.90;;;;;;4989610;28;19980;-65
2022/10/11 03:13:20;;;;;;;;;;;8.20;99.90;;;;;;4989340;28;19926;-65
2022/10/11 03:15:49;;;;;;;;;;;8.10;99.90;;;;;;4989545;28;19962;-65
2022/10/11 03:18:15;;;;;;;;;;;8.10;99.90;;;;;;4988144;28;20324;-65
2022/10/11 03:20:40;;;;;;;;;;;8.10;99.90;;;;;;4988749;28;19973;-65
2022/10/11 03:23:06;;;;;;;;;;;8.10;99.90;;;;;;4988355;28;19933;-67
2022/10/11 03:25:31;;;;;;;;;;;8.00;99.90;;;;;;4989359;28;19926;-66
2022/10/11 03:27:57;;;;;;;;;;;8.00;99.90;;;;;;4989609;28;20363;-66
2022/10/11 03:30:22;;;;;;;;;;;8.00;99.90;;;;;;4992646;28;19955;-65
2022/10/11 03:32:48;;;;;;;;;;;8.00;99.90;;;;;;4993200;28;19926;-65
2022/10/11 03:35:14;;;;;;;;;;;8.00;99.90;;;;;;4992783;28;20104;-64
2022/10/11 03:37:39;;;;;;;;;;;7.90;99.90;;;;;;4975795;28;19925;-65
2022/10/11 03:40:07;;;;;;;;;;;7.80;99.90;;;;;;4993291;28;20025;-65
2022/10/11 03:42:32;;;;;;;;;;;7.80;99.90;;;;;;4992200;28;19926;-67
2022/10/11 03:45:00;;;;;;;;;;;7.80;99.90;;;;;;4975753;28;19979;-65
2022/10/11 03:47:26;;;;;;;;;;;7.80;99.90;;;;;;4975187;28;20367;-65
2022/10/11 03:49:51;;;;;;;;;;;7.80;99.90;;;;;;4991664;28;19925;-65
2022/10/11 03:52:17;;;;;;;;;;;7.70;99.90;;;;;;4992368;28;19926;-65
2022/10/11 03:54:43;;;;;;;;;;;7.70;99.90;;;;;;4992454;28;19930;-65
2022/10/11 03:57:08;;;;;;;;;;;7.70;99.90;;;;;;4991947;28;19925;-65
2022/10/11 03:59:34;;;;;;;;;;;7.80;99.90;;;;;;4992062;28;19933;-66
2022/10/11 04:01:59;;;;;;;;;;;7.60;99.90;;;;;;4991381;28;19932;-66
2022/10/11 04:04:25;;;;;;;;;;;7.60;99.90;;;;;;4991207;28;19930;-66
2022/10/11 04:06:50;;;;;;;;;;;7.60;99.90;;;;;;4992482;28;19925;-66
2022/10/11 04:09:16;;;;;;;;;;;7.60;99.90;;;;;;4991696;28;19947;-66
2022/10/11 04:11:42;;;;;;;;;;;7.60;99.90;;;;;;4992546;28;20290;-66
2022/10/11 04:14:07;;;;;;;;;;;7.60;99.90;;;;;;4991189;28;20074;-66
2022/10/11 04:16:34;;;;;;;;;;;7.50;99.90;;;;;;4992308;28;19993;-66
2022/10/11 04:18:59;;;;;;;;;;;7.50;99.90;;;;;;5024088;28;20379;-66
2022/10/11 04:21:25;;;;;;;;;;;7.50;99.90;;;;;;4990427;28;20022;-66
2022/10/11 04:23:50;;;;;;;;;;;7.50;99.90;;;;;;4991268;28;20367;-66
2022/10/11 04:26:16;;;;;;;;;;;7.50;99.90;;;;;;4992076;28;19976;-68
2022/10/11 04:28:41;;;;;;;;;;;7.50;99.90;;;;;;4992016;28;19929;-66
2022/10/11 04:31:07;;;;;;;;;;;7.50;99.90;;;;;;4992415;28;19926;-66
2022/10/11 04:33:33;;;;;;;;;;;7.50;99.90;;;;;;4991856;28;19926;-66
2022/10/11 04:35:58;;;;;;;;;;;7.50;99.90;;;;;;4992325;28;19973;-66
2022/10/11 04:38:24;;;;;;;;;;;7.50;99.90;;;;;;4991786;28;20340;-66
2022/10/11 04:40:50;;;;;;;;;;;7.50;99.90;;;;;;4991242;28;19972;-67
2022/10/11 04:43:16;;;;;;;;;;;7.50;99.90;;;;;;4990970;28;19926;-66
2022/10/11 04:45:42;;;;;;;;;;;7.50;99.90;;;;;;4990802;28;19948;-65
2022/10/11 04:48:08;;;;;;;;;;;7.50;99.90;;;;;;4992053;28;20410;-65
2022/10/11 04:50:34;;;;;;;;;;;7.40;99.90;;;;;;4991304;28;20375;-66
2022/10/11 04:52:59;;;;;;;;;;;7.50;99.90;;;;;;4991311;28;19926;-65
2022/10/11 04:55:25;;;;;;;;;;;7.50;99.90;;;;;;4989721;28;20325;-65
2022/10/11 04:57:50;;;;;;;;;;;7.50;99.90;;;;;;4990315;28;19941;-66
2022/10/11 05:00:16;;;;;;;;;;;7.50;99.90;;;;;;4990618;28;19979;-66
2022/10/11 05:02:41;;;;;;;;;;;7.50;99.90;;;;;;4991178;28;20278;-66
2022/10/11 05:05:07;;;;;;;;;;;7.50;99.90;;;;;;4990408;28;19977;-66
2022/10/11 05:07:33;;;;;;;;;;;7.50;99.90;;;;;;5006331;28;19937;-66
2022/10/11 05:09:59;;;;;;;;;;;7.50;99.90;;;;;;4989982;28;19926;-66
2022/10/11 05:12:24;;;;;;;;;;;7.50;99.90;;;;;;4989994;28;19930;-66
2022/10/11 05:14:50;;;;;;;;;;;7.50;99.90;;;;;;4991514;28;19925;-67
2022/10/11 05:17:15;;;;;;;;;;;7.50;99.90;;;;;;4991412;28;19949;-66
2022/10/11 05:19:41;;;;;;;;;;;7.40;99.90;;;;;;4990960;28;19969;-66
2022/10/11 05:22:06;;;;;;;;;;;7.50;99.90;;;;;;4991140;28;19926;-66
2022/10/11 05:24:32;;;;;;;;;;;7.50;99.90;;;;;;4990687;28;20240;-66
2022/10/11 05:26:57;;;;;;;;;;;7.50;99.90;;;;;;4991081;28;19926;-66
2022/10/11 05:29:23;;;;;;;;;;;7.40;99.90;;;;;;4991015;28;20384;-67
2022/10/11 05:31:49;;;;;;;;;;;7.50;99.90;;;;;;4991154;28;19949;-64
2022/10/11 05:34:14;;;;;;;;;;;7.50;99.90;;;;;;4990715;28;19926;-64
2022/10/11 05:36:40;;;;;;;;;;;7.40;99.90;;;;;;4990598;28;19976;-64
2022/10/11 05:39:05;;;;;;;;;;;7.50;99.90;;;;;;4989674;28;19926;-66
2022/10/11 05:41:31;;;;;;;;;;;7.50;99.90;;;;;;4990446;28;19933;-65
2022/10/11 05:43:56;;;;;;;;;;;7.50;99.90;;;;;;4990244;28;19925;-65
2022/10/11 05:46:22;;;;;;;;;;;7.50;99.90;;;;;;4989619;28;19925;-64
2022/10/11 05:48:48;;;;;;;;;;;7.60;99.90;;;;;;4990137;28;19937;-64
2022/10/11 05:51:13;;;;;;;;;;;7.60;99.90;;;;;;4990537;28;19930;-65
2022/10/11 05:53:39;;;;;;;;;;;7.60;99.90;;;;;;4990193;28;19930;-64
2022/10/11 05:56:04;;;;;;;;;;;7.60;99.90;;;;;;4990211;28;20385;-65
2022/10/11 05:58:30;;;;;;;;;;;7.60;99.90;;;;;;4989979;28;19925;-65
2022/10/11 06:00:56;;;;;;;;;;;7.60;99.90;;;;;;4990249;28;19972;-65
2022/10/11 06:03:22;;;;;;;;;;;7.60;99.90;;;;;;4990819;28;19925;-69
2022/10/11 06:05:47;;;;;;;;;;;7.60;99.90;;;;;;4990100;28;19925;-68
2022/10/11 06:08:13;;;;;;;;;;;7.60;99.90;;;;;;4990470;28;19937;-71
2022/10/11 06:10:39;;;;;;;;;;;7.70;99.90;;;;;;4988830;28;19975;-69
2022/10/11 06:13:05;;;;;;;;;;;7.60;99.90;;;;;;4988987;28;19929;-68
2022/10/11 06:15:31;;;;;;;;;;;7.60;99.90;;;;;;4989257;28;20119;-71
2022/10/11 06:17:58;;;;;;;;;;;7.60;99.90;;;;;;4990183;28;19957;-68
2022/10/11 06:20:24;;;;;;;;;;;7.60;99.90;;;;;;4990219;28;19973;-68
2022/10/11 06:22:49;;;;;;;;;;;7.60;99.90;;;;;;4990143;28;19933;-68
2022/10/11 06:25:15;;;;;;;;;;;7.70;99.90;;;;;;4989019;28;19926;-68
2022/10/11 06:27:40;;;;;;;;;;;7.70;99.90;;;;;;4990033;28;19925;-68
2022/10/11 06:30:06;;;;;;;;;;;7.70;99.90;;;;;;4988879;28;20306;-68
2022/10/11 06:32:32;;;;;;;;;;;7.80;99.90;;;;;;4989627;28;19926;-72
2022/10/11 06:34:57;;;;;;;;;;;7.80;99.90;;;;;;4989732;28;19933;-68
2022/10/11 06:37:23;;;;;;;;;;;7.80;99.90;;;;;;4988928;28;19936;-68
2022/10/11 06:39:49;;;;;;;;;;;7.90;99.90;;;;;;4989900;28;19973;-68
2022/10/11 06:42:15;;;;;;;;;;;7.90;99.90;;;;;;4989922;28;20260;-67
2022/10/11 06:44:40;;;;;;;;;;;8.00;99.90;;;;;;4989578;28;19933;-70
2022/10/11 06:47:06;;;;;;;;;;;8.00;99.90;;;;;;4988887;28;19991;-68
2022/10/11 06:49:32;;;;;;;;;;;8.10;99.90;;;;;;4989914;28;19926;-68
2022/10/11 06:51:58;;;;;;;;;;;8.10;99.90;;;;;;4989331;28;19933;-67
2022/10/11 06:54:23;;;;;;;;;;;8.20;99.90;;;;;;4989952;28;19934;-69
2022/10/11 06:56:49;;;;;;;;;;;8.30;99.90;;;;;;4988633;28;19929;-67
2022/10/11 06:59:15;;;;;;;;;;;8.50;99.90;;;;;;4989634;28;19987;-68
2022/10/11 07:01:41;;;;;;;;;;;8.60;99.90;;;;;;4989517;28;19925;-67
2022/10/11 07:04:07;;;;;;;;;;;8.70;99.90;;;;;;4971862;28;19926;-67
2022/10/11 07:06:35;;;;;;;;;;;8.80;99.90;;;;;;4989649;28;20405;-68
2022/10/11 07:09:00;;;;;;;;;;;8.90;99.90;;;;;;4989730;28;20373;-66
2022/10/11 07:11:26;;;;;;;;;;;9.00;99.90;;;;;;4989739;28;19926;-65
2022/10/11 07:13:53;;;;;;;;;;;9.10;99.90;;;;;;4988687;28;19930;-67
2022/10/11 07:16:19;;;;;;;;;;;9.30;99.90;;;;;;4989520;28;19933;-66
2022/10/11 07:18:45;;;;;;;;;;;9.50;99.90;;;;;;4989204;28;19926;-67
2022/10/11 07:21:11;;;;;;;;;;;;;;;;;;4989347;28;19933;-66
2022/10/11 07:23:37;;;;;;;;;;;10.00;99.90;;;;;;4989308;28;20327;-68
2022/10/11 07:26:03;;;;;;;;;;;11.70;99.90;;;;;;4987859;28;19926;-67
2022/10/11 07:28:29;;;;;;;;;;;12.40;99.90;;;;;;4987437;28;20006;-69
2022/10/11 07:30:55;;;;;;;;;;;12.90;99.90;;;;;;4986949;28;20325;-68
2022/10/11 07:33:21;;;;;;;;;;;13.50;99.90;;;;;;4987548;28;19926;-67
2022/10/11 07:35:47;;;;;;;;;;;14.20;99.90;;;;;;4986071;28;19937;-67
2022/10/11 07:38:13;;;;;;;;;;;14.70;99.90;;;;;;4988767;28;20018;-67
2022/10/11 07:40:44;;;;;;;;;;;15.50;99.90;;;;;;4966448;28;20559;-68
2022/10/11 07:43:10;;;;;;;;;;;;;;;;;;4988374;28;20291;-68
2022/10/11 07:45:36;;;;;;;;;;;;;;;;;;4982713;28;19926;-68
2022/10/11 07:48:02;;;;;;;;;;;;;;;;;;4987994;28;20339;-68
2022/10/11 07:50:28;;;;;;;;;;;;;;;;;;4988811;28;19926;-67
2022/10/11 07:52:54;;;;;;;;;;;16.30;99.90;;;;;;4988163;28;19926;-67
2022/10/11 07:55:20;;;;;;;;;;;19.20;99.90;;;;;;4987994;28;19925;-68
2022/10/11 07:57:45;;;;;;;;;;;19.40;98.80;;;;;;4988295;28;20028;-66
2022/10/11 08:00:11;;;;;;;;;;;19.70;98.80;;;;;;4987454;28;20290;-67
2022/10/11 08:02:36;;;;;;;;;;;20.00;98.40;;;;;;4988950;28;19986;-64
2022/10/11 08:05:02;;;;;;;;;;;20.20;98.80;;;;;;4988534;28;20114;-66
2022/10/11 08:07:28;;;;;;;;;;;20.30;97.50;;;;;;5020581;28;19926;-65
2022/10/11 08:09:54;;;;;;;;;;;20.30;96.40;;;;;;4986979;28;19926;-67
2022/10/11 08:12:20;;;;;;;;;;;20.30;97.10;;;;;;4988611;28;19933;-66
2022/10/11 08:14:45;;;;;;;;;;;20.20;97.70;;;;;;4987242;28;19950;-69
2022/10/11 08:17:11;;;;;;;;;;;20.20;96.90;;;;;;4992008;28;19933;-67
2022/10/11 08:19:36;;;;;;;;;;;20.40;96.80;;;;;;4992018;28;19930;-65
2022/10/11 08:22:03;;;;;;;;;;;20.70;96.90;;;;;;4991748;28;19926;-65
2022/10/11 08:24:29;;;;;;;;;;;;;;;;;;4974871;28;19932;-67
2022/10/11 08:26:55;;;;;;;;;;;;;;;;;;4991117;28;19933;-66
2022/10/11 08:29:20;;;;;;;;;;;21.00;96.20;;;;;;4990974;28;20366;-65
2022/10/11 08:31:46;;;;;;;;;;;21.80;96.00;;;;;;4991770;28;19932;-68
2022/10/11 08:34:12;;;;;;;;;;;22.00;95.20;;;;;;4991600;28;19932;-65
2022/10/11 08:36:38;;;;;;;;;;;22.30;94.80;;;;;;5022997;28;19974;-66
2022/10/11 08:39:04;;;;;;;;;;;22.40;94.40;;;;;;4974162;28;19929;-66
2022/10/11 08:41:41;;;;;;;;;;;22.60;94.20;;;;;;4991566;28;19926;-66
2022/10/11 08:44:19;;;;;;;;;;;22.60;94.50;;;;;;4990412;28;20144;-66
2022/10/11 08:46:47;;;;;;;;;;;22.80;93.70;;;;;;4991761;28;20020;-67
2022/10/11 08:49:14;;;;;;;;;;;22.80;93.40;;;;;;4991754;28;19974;-66
2022/10/11 08:51:48;;;;;;;;;;;22.10;93.70;;;;;;4990652;28;19926;-66
2022/10/11 08:54:13;;;;;;;;;;;21.30;94.10;;;;;;4990766;28;19929;-66
2022/10/11 08:56:40;;;;;;;;;;;20.50;94.90;;;;;;4991198;28;19933;-68
2022/10/11 08:59:12;;;;;;;;;;;19.90;95.60;;;;;;4989194;28;19972;-65
2022/10/11 09:01:51;;;;;;;;;;;19.40;96.20;;;;;;4990475;28;19926;-66
2022/10/11 09:04:17;;;;;;;;;;;18.90;96.90;;;;;;4990778;28;20051;-65
2022/10/11 09:06:54;;;;;;;;;;;18.50;97.70;;;;;;4988816;28;20009;-66
2022/10/11 09:09:35;;;;;;;;;;;18.20;98.00;;;;;;4989231;28;19929;-66
2022/10/11 09:12:19;;;;;;;;;;;18.00;98.30;;;;;;5022291;28;20255;-68
2022/10/11 09:14:47;;;;;;;;;;;17.80;98.70;;;;;;4990852;28;19930;-67
2022/10/11 09:17:24;;;;;;;;;;;17.50;99.20;;;;;;4990795;28;19929;-66
2022/10/11 09:20:11;;;;;;;;;;;17.30;99.30;;;;;;4991052;28;19926;-69
2022/10/11 09:22:43;;;;;;;;;;;17.20;99.70;;;;;;4991116;28;19933;-66
2022/10/11 09:25:11;;;;;;;;;;;17.10;99.90;;;;;;4989368;28;19980;-67
2022/10/11 09:27:43;;;;;;;;;;;17.00;99.90;;;;;;4990689;28;20021;-67
2022/10/11 09:30:13;;;;;;;;;;;17.00;99.90;;;;;;4990540;28;19926;-66
2022/10/11 09:32:41;;;;;;;;;;;17.00;99.90;;;;;;4987934;28;19965;-65
2022/10/11 09:35:11;;;;;;;;;;;16.90;99.90;;;;;;4990004;28;19926;-65
2022/10/11 09:37:42;;;;;;;;;;;16.80;99.90;;;;;;4990898;28;19929;-66
2022/10/11 09:40:17;;;;;;;;;;;16.80;99.90;;;;;;4988836;28;19980;-69
2022/10/11 09:42:42;;;;;;;;;;;16.80;99.90;;;;;;4990804;28;19926;-69
2022/10/11 09:45:13;;;;;;;;;;;16.90;99.90;;;;;;4990406;28;20021;-69
2022/10/11 09:47:39;;;;;;;;;;;16.90;99.90;;;;;;4989810;28;19992;-69
2022/10/11 09:50:11;;;;;;;;;;;16.80;99.90;;;;;;4989268;28;20393;-69
2022/10/11 09:52:46;;;;;;;;;;;16.80;99.90;;;;;;5005616;28;20290;-68
2022/10/11 09:55:27;;;;;;;;;;;16.80;99.90;;;;;;4989599;28;19930;-66
2022/10/11 09:57:54;;;;;;;;;;;16.80;99.90;;;;;;4990820;28;19936;-67
2022/10/11 10:00:26;;;;;;;;;;;16.80;99.90;;;;;;4989572;28;20016;-67
2022/10/11 10:02:56;;;;;;;;;;;16.80;99.90;;;;;;4988572;28;20027;-66
2022/10/11 10:05:23;;;;;;;;;;;16.90;99.90;;;;;;4990666;28;19925;-66
2022/10/11 10:08:04;;;;;;;;;;;16.90;99.90;;;;;;4990673;28;19937;-68
2022/10/11 10:10:33;;;;;;;;;;;16.80;99.90;;;;;;4990587;28;19930;-66
2022/10/11 10:13:00;;;;;;;;;;;16.70;99.90;;;;;;4989914;28;20378;-67
2022/10/11 10:15:33;;;;;;;;;;;16.70;99.90;;;;;;4990730;28;19930;-65
2022/10/11 10:17:59;;;;;;;;;;;16.70;99.90;;;;;;4990462;28;19930;-72
2022/10/11 10:20:32;;;;;;;;;;;16.80;99.90;;;;;;4990598;28;19925;-67
2022/10/11 10:23:09;;;;;;;;;;;16.80;99.90;;;;;;4990461;28;19933;-68
2022/10/11 10:25:36;;;;;;;;;;;16.90;99.90;;;;;;4990416;28;19925;-66
2022/10/11 10:28:03;;;;;;;;;;;17.00;99.90;;;;;;4989061;28;19926;-67
2022/10/11 10:30:29;;;;;;;;;;;16.90;99.90;;;;;;4990465;28;19970;-68
2022/10/11 10:33:10;;;;;;;;;;;16.80;99.90;;;;;;4990653;28;20012;-67
2022/10/11 10:35:44;;;;;;;;;;;16.70;99.90;;;;;;4990150;28;19930;-67
2022/10/11 10:38:12;;;;;;;;;;;16.70;99.90;;;;;;4988634;28;19926;-68
2022/10/11 10:40:38;;;;;;;;;;;16.70;99.90;;;;;;4990038;28;19948;-67
2022/10/11 10:43:04;;;;;;;;;;;16.80;99.90;;;;;;4989617;28;19925;-69
2022/10/11 10:45:35;;;;;;;;;;;16.80;99.90;;;;;;4989178;28;19926;-67
2022/10/11 10:48:10;;;;;;;;;;;16.90;99.90;;;;;;4990277;28;19926;-69
2022/10/11 10:50:49;;;;;;;;;;;16.90;99.90;;;;;;5021685;28;19969;-67
2022/10/11 10:53:20;;;;;;;;;;;17.00;99.90;;;;;;4989690;28;19926;-67
2022/10/11 10:55:50;;;;;;;;;;;17.10;99.90;;;;;;4988707;28;19926;-67
2022/10/11 10:58:34;;;;;;;;;;;17.20;99.90;;;;;;4989806;28;19926;-67
2022/10/11 11:01:19;;;;;;;;;;;17.20;99.20;;;;;;4989743;28;19949;-67
2022/10/11 11:03:45;;;;;;;;;;;17.40;99.50;;;;;;4989973;28;20337;-67
2022/10/11 11:06:29;;;;;;;;;;;17.40;98.90;;;;;;4989539;28;19929;-67
2022/10/11 11:09:13;;;;;;;;;;;17.30;98.60;;;;;;4989924;28;20252;-67
2022/10/11 11:11:57;;;;;;;;;;;17.30;99.00;;;;;;4989953;28;19926;-67
2022/10/11 11:14:36;;;;;;;;;;;17.10;99.20;;;;;;4989464;28;19937;-67
2022/10/11 11:17:07;;;;;;;;;;;17.10;99.60;;;;;;4988992;28;19926;-66
2022/10/11 11:19:58;;;;;;;;;;;16.90;99.60;;;;;;4989738;28;20016;-67
2022/10/11 11:22:27;;;;;;;;;;;16.80;99.90;;;;;;4988207;28;20525;-66
2022/10/11 11:24:55;;;;;;;;;;;16.60;99.90;;;;;;4989619;28;19926;-66
2022/10/11 11:27:29;;;;;;;;;;;16.40;99.90;;;;;;4989241;28;19926;-66
2022/10/11 11:29:55;;;;;;;;;;;16.20;99.90;;;;;;4989190;28;19981;-67
2022/10/11 11:32:23;;;;;;;;;;;16.10;99.90;;;;;;4987931;28;20029;-67
2022/10/11 11:34:57;;;;;;;;;;;16.00;99.90;;;;;;4989465;28;19987;-67
2022/10/11 11:37:31;;;;;;;;;;;15.90;99.90;;;;;;4989228;28;19930;-67
2022/10/11 11:40:01;;;;;;;;;;;15.90;99.90;;;;;;4972182;28;20237;-68
2022/10/11 11:42:33;;;;;;;;;;;15.90;99.90;;;;;;4989131;28;19926;-68
2022/10/11 11:45:01;;;;;;;;;;;15.90;99.90;;;;;;4988337;28;19926;-67
2022/10/11 11:47:28;;;;;;;;;;;15.90;99.90;;;;;;4987715;28;19987;-69
2022/10/11 11:49:56;;;;;;;;;;;16.00;99.90;;;;;;4990024;28;19925;-68
2022/10/11 11:52:27;;;;;;;;;;;16.00;99.90;;;;;;4992267;28;19959;-68
2022/10/11 11:55:11;;;;;;;;;;;16.00;99.90;;;;;;4992647;28;19976;-68
2022/10/11 11:57:55;;;;;;;;;;;16.00;99.90;;;;;;4991497;28;19933;-68
2022/10/11 12:00:24;;;;;;;;;;;16.10;99.90;;;;;;4992022;28;19926;-68
2022/10/11 12:02:52;;;;;;;;;;;16.10;99.90;;;;;;4992166;28;19926;-68
2022/10/11 12:05:19;;;;;;;;;;;16.20;99.90;;;;;;4991875;28;19933;-68
2022/10/11 12:08:05;;;;;;;;;;;16.20;99.90;;;;;;4991275;28;19925;-67
2022/10/11 12:10:38;;;;;;;;;;;16.20;99.90;;;;;;4991850;28;19925;-68
2022/10/11 12:13:07;;;;;;;;;;;16.20;99.90;;;;;;4990849;28;19933;-68
2022/10/11 12:15:32;;;;;;;;;;;16.20;99.90;;;;;;4989941;28;19925;-68
2022/10/11 12:18:00;;;;;;;;;;;16.10;99.90;;;;;;4989754;28;19925;-68
2022/10/11 12:20:25;;;;;;;;;;;16.10;99.90;;;;;;4991003;28;20422;-68
2022/10/11 12:22:51;;;;;;;;;;;16.00;99.90;;;;;;4991250;28;19976;-68
2022/10/11 12:25:32;;;;;;;;;;;16.00;99.90;;;;;;4991549;28;19926;-69
2022/10/11 12:28:01;;;;;;;;;;;16.00;99.90;;;;;;4991229;28;20487;-68
2022/10/11 12:30:54;;;;;;;;;;;16.00;99.90;;;;;;4990638;28;19926;-68
2022/10/11 12:33:24;;;;;;;;;;;16.00;99.90;;;;;;4991665;28;20030;-68
2022/10/11 12:35:53;;;;;;;;;;;16.10;99.90;;;;;;4991987;28;19930;-67
2022/10/11 12:38:21;;;;;;;;;;;16.20;99.90;;;;;;4990094;28;19975;-68
2022/10/11 12:40:48;;;;;;;;;;;16.30;99.90;;;;;;4991058;28;19926;-69
2022/10/11 12:43:14;;;;;;;;;;;16.30;99.90;;;;;;4990753;28;19969;-68
2022/10/11 12:45:42;;;;;;;;;;;16.40;99.90;;;;;;4991313;28;19973;-68
2022/10/11 12:48:17;;;;;;;;;;;16.40;99.90;;;;;;4991271;28;20130;-68
2022/10/11 12:50:57;;;;;;;;;;;16.40;99.90;;;;;;4991727;28;19948;-69
2022/10/11 12:53:46;;;;;;;;;;;16.40;99.90;;;;;;4990925;28;19991;-68
2022/10/11 12:56:22;;;;;;;;;;;16.30;99.90;;;;;;5019452;28;20318;-68
2022/10/11 12:58:48;;;;;;;;;;;16.30;99.90;;;;;;4974418;28;19929;-68
2022/10/11 13:01:21;;;;;;;;;;;16.20;99.90;;;;;;4989837;28;19952;-68
2022/10/11 13:03:49;;;;;;;;;;;16.10;99.90;;;;;;4991504;28;20286;-69
2022/10/11 13:06:17;;;;;;;;;;;16.10;99.90;;;;;;4990956;28;19926;-68
2022/10/11 13:08:46;;;;;;;;;;;16.10;99.90;;;;;;4991267;28;19937;-68
2022/10/11 13:11:16;;;;;;;;;;;16.00;99.90;;;;;;4991324;28;19926;-69
2022/10/11 13:13:55;;;;;;;;;;;16.10;99.90;;;;;;4991441;28;19921;-68
2022/10/11 13:16:25;;;;;;;;;;;16.00;99.90;;;;;;4991374;28;19955;-69
2022/10/11 13:18:54;;;;;;;;;;;16.10;99.90;;;;;;4991089;28;20427;-68
2022/10/11 13:21:30;;;;;;;;;;;16.10;99.90;;;;;;4989314;28;19979;-69
2022/10/11 13:24:00;;;;;;;;;;;16.20;99.90;;;;;;4991000;28;19925;-69
2022/10/11 13:26:27;;;;;;;;;;;16.30;99.90;;;;;;4989515;28;20005;-68
2022/10/11 13:28:52;;;;;;;;;;;16.40;99.90;;;;;;5022920;28;19926;-67
2022/10/11 13:31:18;;;;;;;;;;;16.40;99.90;;;;;;4989898;28;19955;-68
2022/10/11 13:33:44;;;;;;;;;;;16.40;99.90;;;;;;4989165;28;19922;-68
2022/10/11 13:36:16;;;;;;;;;;;16.40;99.70;;;;;;4989358;28;20397;-67
2022/10/11 13:38:48;;;;;;;;;;;16.30;99.60;;;;;;4989851;28;19926;-68
2022/10/11 13:41:14;;;;;;;;;;;16.20;99.90;;;;;;4991113;28;19933;-67
2022/10/11 13:43:40;;;;;;;;;;;16.10;99.90;;;;;;4989203;28;19926;-67
2022/10/11 13:46:09;;;;;;;;;;;16.10;99.90;;;;;;4989973;28;19925;-67
2022/10/11 13:48:39;;;;;;;;;;;16.00;99.90;;;;;;4988965;28;20013;-68
2022/10/11 13:51:05;;;;;;;;;;;16.00;99.90;;;;;;4989516;28;20302;-68
2022/10/11 13:53:31;;;;;;;;;;;15.90;99.90;;;;;;4989473;28;19925;-68
2022/10/11 13:55:58;;;;;;;;;;;15.90;99.90;;;;;;4990594;28;20416;-69
2022/10/11 13:58:37;;;;;;;;;;;16.00;99.90;;;;;;4988969;28;19926;-69
2022/10/11 14:01:21;;;;;;;;;;;16.00;99.90;;;;;;4990679;28;20024;-68
2022/10/11 14:03:58;;;;;;;;;;;15.90;99.90;;;;;;4989557;28;20160;-68
2022/10/11 14:06:37;;;;;;;;;;;15.90;99.90;;;;;;4990591;28;19925;-68
2022/10/11 14:09:02;;;;;;;;;;;15.90;99.90;;;;;;4989832;28;19926;-68
2022/10/11 14:11:33;;;;;;;;;;;16.00;99.90;;;;;;4990491;28;19926;-68
2022/10/11 14:13:58;;;;;;;;;;;16.10;99.90;;;;;;4989331;28;19925;-67
2022/10/11 14:16:24;;;;;;;;;;;16.10;99.90;;;;;;4990465;28;19933;-68
2022/10/11 14:18:58;;;;;;;;;;;16.20;99.90;;;;;;4990231;28;19922;-67
2022/10/11 14:21:26;;;;;;;;;;;16.20;99.90;;;;;;4990713;28;19926;-67
2022/10/11 14:23:56;;;;;;;;;;;16.30;99.90;;;;;;4990126;28;20390;-69
2022/10/11 14:26:22;;;;;;;;;;;16.20;99.90;;;;;;4990746;28;20290;-68
2022/10/11 14:28:58;;;;;;;;;;;16.20;99.90;;;;;;4989569;28;19937;-68
2022/10/11 14:31:24;;;;;;;;;;;16.20;99.90;;;;;;4988906;28;19926;-68
2022/10/11 14:33:50;;;;;;;;;;;16.10;99.90;;;;;;4990132;28;20401;-68
2022/10/11 14:36:15;;;;;;;;;;;16.00;99.90;;;;;;4990479;28;19922;-68